createdAt,value
2019-06-01T00:00:10.372Z,101042.84
2019-06-01T00:03:01.702Z,101038.89
2019-06-01T00:06:05.751Z,101034.95
2019-06-01T00:09:09.777Z,101039.77
2019-06-01T00:12:14.328Z,101037.56
2019-06-01T00:15:18.365Z,101034.50
2019-06-01T00:18:22.653Z,101032.09
2019-06-01T00:21:27.076Z,101031.47
2019-06-01T00:24:31.399Z,101032.42
2019-06-01T00:27:35.514Z,101028.95
2019-06-01T00:30:39.466Z,101028.58
2019-06-01T00:33:43.494Z,101022.94
2019-06-01T00:36:47.829Z,101023.59
2019-06-01T00:39:52.032Z,101025.23
2019-06-01T00:42:56.336Z,101031.28
2019-06-01T00:46:00.280Z,101022.77
2019-06-01T00:49:04.539Z,101025.56
2019-06-01T00:52:08.821Z,101022.60
2019-06-01T00:55:12.832Z,101020.91
2019-06-01T00:58:17.091Z,101022.10
2019-06-01T01:01:21.057Z,101015.98
2019-06-01T01:04:25.309Z,101021.27
2019-06-01T01:07:29.313Z,101018.12
2019-06-01T01:10:33.301Z,101013.63
2019-06-01T01:13:37.562Z,101022.28
2019-06-01T01:16:41.608Z,101017.89
2019-06-01T01:19:45.851Z,101014.19
2019-06-01T01:22:50.210Z,101019.36
2019-06-01T01:25:54.600Z,101022.63
2019-06-01T01:28:58.907Z,101020.48
2019-06-01T01:32:03.632Z,101017.83
2019-06-01T01:35:08.240Z,101022.12
2019-06-01T01:38:12.586Z,101017.73
2019-06-01T01:41:16.849Z,101018.27
2019-06-01T01:44:21.030Z,101023.03
2019-06-01T01:47:25.252Z,101021.09
2019-06-01T01:50:29.614Z,101018.12
2019-06-01T01:53:33.875Z,101019.08
2019-06-01T01:56:37.741Z,101022.84
2019-06-01T01:59:41.754Z,101022.12
2019-06-01T02:02:46.052Z,101015.14
2019-06-01T02:05:50.786Z,101018.54
2019-06-01T02:08:55.157Z,101014.11
2019-06-01T02:11:59.654Z,101018.19
2019-06-01T02:15:03.639Z,101019.78
2019-06-01T02:18:07.722Z,101018.24
2019-06-01T02:21:11.743Z,101012.04
2019-06-01T02:24:16.301Z,101014.58
2019-06-01T02:27:20.742Z,101019.27
2019-06-01T02:30:24.754Z,101012.81
2019-06-01T02:33:28.692Z,101014.64
2019-06-01T02:36:32.978Z,101015.59
2019-06-01T02:39:37.202Z,101012.87
2019-06-01T02:42:41.450Z,100998.89
2019-06-01T02:45:46.147Z,100999.84
2019-06-01T02:48:50.576Z,101007.59
2019-06-01T02:51:55.085Z,101008.00
2019-06-01T02:54:59.667Z,101007.72
2019-06-01T02:58:04.375Z,101005.95
2019-06-01T03:01:56.092Z,101013.70
2019-06-01T03:04:46.108Z,101008.25
2019-06-01T03:07:52.120Z,101009.14
2019-06-01T03:10:59.684Z,101012.34
2019-06-01T03:14:04.795Z,101014.39
2019-06-01T03:17:12.162Z,101011.95
2019-06-01T03:20:17.780Z,101008.83
2019-06-01T03:23:24.225Z,101011.54
2019-06-01T03:26:31.670Z,101006.05
2019-06-01T03:29:41.010Z,101006.77
2019-06-01T03:32:45.037Z,101004.81
2019-06-01T03:35:49.358Z,101002.09
2019-06-01T03:38:54.022Z,101013.37
2019-06-01T03:41:58.024Z,101011.67
2019-06-01T03:45:03.394Z,101011.13
2019-06-01T03:48:08.759Z,101009.30
2019-06-01T03:51:13.063Z,101011.67
2019-06-01T03:54:17.074Z,101009.42
2019-06-01T03:57:21.355Z,101006.17
2019-06-01T04:00:25.703Z,101005.06
2019-06-01T04:03:29.717Z,101001.73
2019-06-01T04:06:33.665Z,101002.97
2019-06-01T04:09:37.602Z,101009.84
2019-06-01T04:12:41.537Z,101002.63
2019-06-01T04:15:45.765Z,101011.61
2019-06-01T04:18:50.275Z,101007.91
2019-06-01T04:21:54.926Z,101004.17
2019-06-01T04:24:59.193Z,101009.55
2019-06-01T04:28:06.247Z,101007.84
2019-06-01T04:31:10.909Z,101009.36
2019-06-01T04:34:15.592Z,101006.55
2019-06-01T04:37:19.639Z,101006.36
2019-06-01T04:40:23.740Z,101000.69
2019-06-01T04:43:28.004Z,101000.33
2019-06-01T04:46:32.128Z,100994.62
2019-06-01T04:49:36.389Z,101002.50
2019-06-01T04:52:40.711Z,101005.69
2019-06-01T05:00:00.919Z,100992.70
2019-06-01T05:03:07.257Z,100987.48
2019-06-01T05:06:11.347Z,100982.28
2019-06-01T05:09:15.852Z,100979.14
2019-06-01T05:12:19.814Z,100977.36
2019-06-01T05:15:23.890Z,100984.14
2019-06-01T05:18:28.126Z,100976.16
2019-06-01T05:21:32.006Z,100974.16
2019-06-01T05:24:36.129Z,100979.90
2019-06-01T05:27:40.811Z,100974.58
2019-06-01T05:30:44.701Z,100970.20
2019-06-01T05:33:48.525Z,100969.81
2019-06-01T05:36:52.620Z,100966.88
2019-06-01T05:39:56.965Z,100968.25
2019-06-01T05:43:01.112Z,100971.70
2019-06-01T05:46:05.089Z,100974.42
2019-06-01T05:49:11.981Z,100972.47
2019-06-01T05:52:15.059Z,100970.06
2019-06-01T05:55:19.262Z,100966.30
2019-06-01T05:58:23.606Z,100976.85
2019-06-01T06:01:37.104Z,100970.73
2019-06-01T06:04:41.254Z,100971.19
2019-06-01T06:07:45.171Z,100975.17
2019-06-01T06:10:49.060Z,100970.29
2019-06-01T06:13:53.033Z,100979.34
2019-06-01T06:16:56.911Z,100975.56
2019-06-01T06:20:00.835Z,100974.28
2019-06-01T06:23:05.092Z,100975.64
2019-06-01T06:26:10.522Z,100968.85
2019-06-01T06:29:14.753Z,100976.42
2019-06-01T06:32:19.224Z,100965.71
2019-06-01T06:35:24.056Z,100965.84
2019-06-01T06:38:28.997Z,100964.98
2019-06-01T06:41:34.532Z,100962.59
2019-06-01T06:44:39.107Z,100967.74
2019-06-01T06:47:43.675Z,100963.31
2019-06-01T06:50:47.899Z,100964.81
2019-06-01T06:53:52.169Z,100962.94
2019-06-01T06:56:56.960Z,100961.91
2019-06-01T07:00:00.995Z,100958.61
2019-06-01T07:03:05.381Z,100960.64
2019-06-01T07:06:09.542Z,100956.05
2019-06-01T07:09:14.040Z,100955.80
2019-06-01T07:12:19.128Z,100948.28
2019-06-01T07:15:23.519Z,100946.59
2019-06-01T07:18:28.030Z,100951.73
2019-06-01T07:21:32.273Z,100945.13
2019-06-01T07:24:36.376Z,100953.20
2019-06-01T07:27:41.971Z,100946.30
2019-06-01T07:30:50.571Z,100944.27
2019-06-01T07:33:52.244Z,100938.19
2019-06-01T07:36:56.183Z,100940.72
2019-06-01T07:40:00.406Z,100949.02
2019-06-01T07:43:04.298Z,100940.74
2019-06-01T07:46:08.455Z,100938.45
2019-06-01T07:49:12.510Z,100931.64
2019-06-01T07:52:16.913Z,100925.90
2019-06-01T07:55:21.647Z,100921.00
2019-06-01T07:58:26.758Z,100915.63
2019-06-01T08:01:31.570Z,100918.53
2019-06-01T08:04:52.952Z,100919.77
2019-06-01T08:07:42.641Z,100920.64
2019-06-01T08:10:46.944Z,100924.13
2019-06-01T08:13:50.777Z,100918.30
2019-06-01T08:16:54.954Z,100914.83
2019-06-01T08:19:58.787Z,100921.04
2019-06-01T08:23:02.614Z,100930.19
2019-06-01T08:26:06.940Z,100924.84
2019-06-01T08:29:11.286Z,100917.14
2019-06-01T08:32:15.568Z,100918.85
2019-06-01T08:35:19.559Z,100912.33
2019-06-01T08:38:23.706Z,100911.87
2019-06-01T08:41:27.976Z,100907.16
2019-06-01T08:44:33.681Z,100898.39
2019-06-01T08:47:37.641Z,100899.57
2019-06-01T08:50:45.789Z,100897.25
2019-06-01T08:53:48.082Z,100898.23
2019-06-01T08:56:51.997Z,100891.11
2019-06-01T08:59:56.380Z,100887.73
2019-06-01T09:03:00.454Z,100890.83
2019-06-01T09:06:04.379Z,100894.39
2019-06-01T09:09:11.725Z,100887.91
2019-06-01T09:12:17.964Z,100888.37
2019-06-01T09:15:21.958Z,100887.16
2019-06-01T09:18:27.463Z,100873.20
2019-06-01T09:21:32.203Z,100877.38
2019-06-01T09:24:36.288Z,100866.22
2019-06-01T09:27:41.363Z,100866.73
2019-06-01T09:30:45.442Z,100872.69
2019-06-01T09:33:50.024Z,100871.41
2019-06-01T09:36:55.659Z,100873.41
2019-06-01T09:39:59.962Z,100874.81
2019-06-01T09:43:03.936Z,100871.55
2019-06-01T09:46:08.516Z,100869.02
2019-06-01T09:49:12.418Z,100874.15
2019-06-01T09:52:16.414Z,100877.20
2019-06-01T09:55:20.730Z,100874.06
2019-06-01T09:58:24.882Z,100872.13
2019-06-01T10:01:30.080Z,100869.05
2019-06-01T10:04:34.444Z,100860.20
2019-06-01T10:07:39.372Z,100861.59
2019-06-01T10:10:43.728Z,100854.93
2019-06-01T10:13:47.654Z,100852.66
2019-06-01T10:16:52.429Z,100849.75
2019-06-01T10:19:56.722Z,100840.39
2019-06-01T10:23:01.108Z,100843.11
2019-06-01T10:26:05.221Z,100844.05
2019-06-01T10:29:09.009Z,100837.60
2019-06-01T10:32:12.920Z,100844.63
2019-06-01T10:35:17.277Z,100832.27
2019-06-01T10:38:21.595Z,100833.35
2019-06-01T10:41:25.435Z,100831.44
2019-06-01T10:44:29.726Z,100829.84
2019-06-01T10:47:33.959Z,100824.00
2019-06-01T10:50:38.461Z,100827.15
2019-06-01T10:53:43.819Z,100830.04
2019-06-01T10:56:48.067Z,100821.38
2019-06-01T10:59:52.278Z,100819.81
2019-06-01T11:02:56.586Z,100813.79
2019-06-01T11:06:00.805Z,100808.14
2019-06-01T11:09:07.512Z,100806.96
2019-06-01T11:12:11.483Z,100803.47
2019-06-01T11:15:17.237Z,100803.82
2019-06-01T11:18:21.391Z,100808.52
2019-06-01T11:21:25.899Z,100806.60
2019-06-01T11:24:29.886Z,100795.47
2019-06-01T11:27:35.485Z,100798.03
2019-06-01T11:30:40.096Z,100794.92
2019-06-01T11:33:44.358Z,100796.30
2019-06-01T11:37:04.659Z,100792.09
2019-06-01T11:39:53.920Z,100783.00
2019-06-01T11:42:58.126Z,100779.72
2019-06-01T11:46:02.331Z,100781.11
2019-06-01T11:49:06.653Z,100776.22
2019-06-01T11:52:10.597Z,100774.09
2019-06-01T11:55:14.984Z,100769.49
2019-06-01T11:58:18.861Z,100765.48
2019-06-01T12:01:22.724Z,100757.28
2019-06-01T12:04:26.903Z,100755.45
2019-06-01T12:07:31.167Z,100752.57
2019-06-01T12:10:36.609Z,100747.26
2019-06-01T12:13:40.700Z,100743.17
2019-06-01T12:16:45.009Z,100744.56
2019-06-01T12:19:48.854Z,100742.19
2019-06-01T12:22:53.359Z,100739.16
2019-06-01T12:25:57.500Z,100732.17
2019-06-01T12:29:01.493Z,100723.16
2019-06-01T12:32:05.574Z,100715.35
2019-06-01T12:35:10.304Z,100715.98
2019-06-01T12:38:14.132Z,100723.17
2019-06-01T12:41:18.203Z,100722.22
2019-06-01T12:44:22.380Z,100717.66
2019-06-01T12:47:26.414Z,100709.64
2019-06-01T12:50:30.645Z,100705.61
2019-06-01T12:53:34.492Z,100700.37
2019-06-01T12:56:38.406Z,100693.85
2019-06-01T12:59:43.181Z,100696.12
2019-06-01T13:02:59.321Z,100690.99
2019-06-01T13:05:53.185Z,100690.41
2019-06-01T13:08:57.099Z,100685.81
2019-06-01T13:12:00.942Z,100678.41
2019-06-01T13:15:05.848Z,100674.84
2019-06-01T13:18:09.922Z,100668.80
2019-06-01T13:21:14.179Z,100674.05
2019-06-01T13:24:18.247Z,100669.98
2019-06-01T13:27:22.422Z,100670.25
2019-06-01T13:30:26.735Z,100665.39
2019-06-01T13:33:30.575Z,100661.64
2019-06-01T13:36:35.164Z,100661.51
2019-06-01T13:39:38.999Z,100655.29
2019-06-01T13:42:43.124Z,100649.97
2019-06-01T13:45:47.353Z,100644.72
2019-06-01T13:48:52.762Z,100640.00
2019-06-01T13:51:57.436Z,100633.48
2019-06-01T13:55:01.797Z,100626.72
2019-06-01T13:58:06.478Z,100621.94
2019-06-01T14:01:10.397Z,100615.61
2019-06-01T14:04:14.551Z,100611.92
2019-06-01T14:07:18.562Z,100607.63
2019-06-01T14:10:24.010Z,100604.11
2019-06-01T14:13:27.882Z,100593.90
2019-06-01T14:16:31.860Z,100594.89
2019-06-01T14:19:36.411Z,100593.58
2019-06-01T14:22:40.260Z,100590.77
2019-06-01T14:25:44.257Z,100590.83
2019-06-01T14:28:48.403Z,100587.57
2019-06-01T14:31:54.008Z,100587.73
2019-06-01T14:34:58.179Z,100585.59
2019-06-01T14:38:02.343Z,100588.41
2019-06-01T14:41:06.254Z,100583.86
2019-06-01T14:44:10.483Z,100581.97
2019-06-01T14:47:18.526Z,100579.07
2019-06-01T14:50:21.075Z,100579.40
2019-06-01T14:53:24.998Z,100576.73
2019-06-01T14:56:29.519Z,100571.66
2019-06-01T14:59:33.595Z,100573.98
2019-06-01T15:02:37.586Z,100567.22
2019-06-01T15:05:41.761Z,100562.69
2019-06-01T15:08:45.665Z,100559.21
2019-06-01T15:11:50.607Z,100559.52
2019-06-01T15:14:55.536Z,100554.11
2019-06-01T15:17:59.451Z,100552.40
2019-06-01T15:21:03.560Z,100551.45
2019-06-01T15:24:07.538Z,100552.70
2019-06-01T15:27:12.044Z,100548.36
2019-06-01T15:30:16.219Z,100551.82
2019-06-01T15:33:20.669Z,100550.69
2019-06-01T15:36:25.097Z,100550.80
2019-06-01T15:39:29.416Z,100546.05
2019-06-01T15:42:33.664Z,100545.61
2019-06-01T15:45:40.552Z,100546.19
2019-06-01T15:48:43.638Z,100535.94
2019-06-01T15:51:47.966Z,100534.38
2019-06-01T15:54:53.892Z,100538.63
2019-06-01T15:57:58.551Z,100533.58
2019-06-01T16:01:03.175Z,100532.27
2019-06-01T16:04:07.179Z,100530.28
2019-06-01T16:07:11.005Z,100528.58
2019-06-01T16:10:15.425Z,100528.19
2019-06-01T16:13:19.929Z,100524.61
2019-06-01T16:16:23.909Z,100523.73
2019-06-01T16:19:27.807Z,100524.52
2019-06-01T16:22:32.555Z,100522.95
2019-06-01T16:25:36.775Z,100521.02
2019-06-01T16:28:40.830Z,100521.91
2019-06-01T16:31:45.018Z,100520.33
2019-06-01T16:34:49.087Z,100524.94
2019-06-01T16:37:53.223Z,100519.72
2019-06-01T16:40:57.531Z,100524.59
2019-06-01T16:44:01.836Z,100521.58
2019-06-01T16:47:06.596Z,100519.33
2019-06-01T16:50:11.371Z,100518.09
2019-06-01T16:53:15.550Z,100516.43
2019-06-01T16:56:19.765Z,100509.00
2019-06-01T16:59:24.186Z,100508.23
2019-06-01T17:02:28.335Z,100506.42
2019-06-01T17:05:32.991Z,100514.66
2019-06-01T17:08:37.255Z,100511.12
2019-06-01T17:11:41.583Z,100509.92
2019-06-01T17:14:45.809Z,100504.53
2019-06-01T17:17:50.441Z,100514.14
2019-06-01T17:20:57.281Z,100515.91
2019-06-01T17:24:01.607Z,100511.75
2019-06-01T17:27:06.008Z,100518.33
2019-06-01T17:30:12.093Z,100521.48
2019-06-01T17:33:15.934Z,100519.57
2019-06-01T17:36:20.257Z,100518.19
2019-06-01T17:39:24.084Z,100514.03
2019-06-01T17:42:28.508Z,100518.77
2019-06-01T17:45:32.970Z,100515.25
2019-06-01T17:48:37.051Z,100516.78
2019-06-01T17:51:41.667Z,100517.31
2019-06-01T17:54:45.990Z,100516.86
2019-06-01T17:57:50.224Z,100510.25
2019-06-01T18:00:54.596Z,100506.39
2019-06-01T18:03:58.370Z,100515.76
2019-06-01T18:07:02.281Z,100517.83
2019-06-01T18:10:06.550Z,100519.34
2019-06-01T18:13:10.820Z,100520.06
2019-06-01T18:16:15.147Z,100519.10
2019-06-01T18:19:18.973Z,100530.83
2019-06-01T18:22:23.349Z,100528.67
2019-06-01T18:25:29.604Z,100529.48
2019-06-01T18:28:33.609Z,100533.38
2019-06-01T18:31:37.870Z,100528.28
2019-06-01T18:34:41.835Z,100530.70
2019-06-01T18:37:46.119Z,100533.03
2019-06-01T18:40:50.198Z,100538.30
2019-06-01T18:43:54.043Z,100537.98
2019-06-01T18:46:58.130Z,100540.32
2019-06-01T18:50:02.921Z,100539.58
2019-06-01T18:53:08.059Z,100539.79
2019-06-01T18:56:12.310Z,100553.72
2019-06-01T18:59:16.807Z,100553.44
2019-06-01T19:02:20.940Z,100549.12
2019-06-01T19:05:24.918Z,100548.39
2019-06-01T19:08:29.323Z,100548.36
2019-06-01T19:11:36.222Z,100556.32
2019-06-01T19:14:39.357Z,100554.70
2019-06-01T19:17:43.758Z,100554.45
2019-06-01T19:20:47.823Z,100558.41
2019-06-01T19:23:52.070Z,100554.16
2019-06-01T19:26:56.139Z,100555.48
2019-06-01T19:30:00.215Z,100564.92
2019-06-01T19:33:04.540Z,100561.81
2019-06-01T19:36:09.059Z,100570.96
2019-06-01T19:39:13.528Z,100567.07
2019-06-01T19:42:17.546Z,100577.13
2019-06-01T19:45:29.166Z,100581.30
2019-06-01T19:48:27.682Z,100578.50
2019-06-01T19:51:32.502Z,100588.63
2019-06-01T19:54:36.620Z,100587.30
2019-06-01T19:57:40.535Z,100596.05
2019-06-01T20:00:44.514Z,100600.29
2019-06-01T20:03:48.447Z,100599.22
2019-06-01T20:06:52.343Z,100605.77
2019-06-01T20:09:56.846Z,100602.70
2019-06-01T20:13:01.241Z,100605.89
2019-06-01T20:16:05.448Z,100606.60
2019-06-01T20:19:09.607Z,100608.65
2019-06-01T20:22:14.927Z,100607.19
2019-06-01T20:25:21.544Z,100604.84
2019-06-01T20:28:26.136Z,100612.02
2019-06-01T20:31:30.448Z,100608.16
2019-06-01T20:34:34.661Z,100610.16
2019-06-01T20:37:38.568Z,100612.20
2019-06-01T20:40:42.630Z,100613.13
2019-06-01T20:43:46.707Z,100619.02
2019-06-01T20:46:50.622Z,100615.66
2019-06-01T20:49:54.622Z,100620.54
2019-06-01T20:52:58.963Z,100615.80
2019-06-01T20:56:02.899Z,100613.03
2019-06-01T20:59:07.046Z,100621.05
2019-06-01T21:02:11.433Z,100617.55
2019-06-01T21:05:15.925Z,100613.66
2019-06-01T21:08:20.351Z,100613.16
2019-06-01T21:11:24.543Z,100619.78
2019-06-01T21:14:28.656Z,100619.38
2019-06-01T21:17:32.548Z,100620.37
2019-06-01T21:20:36.925Z,100619.73
2019-06-01T21:23:40.865Z,100617.47
2019-06-01T21:26:44.974Z,100621.59
2019-06-01T21:29:49.475Z,100620.56
2019-06-01T21:32:53.616Z,100617.01
2019-06-01T21:35:58.143Z,100622.00
2019-06-01T21:39:02.087Z,100618.72
2019-06-01T21:45:10.486Z,100629.78
2019-06-01T21:48:15.603Z,100628.86
2019-06-01T21:51:19.741Z,100627.45
2019-06-01T21:54:24.653Z,100619.31
2019-06-01T21:57:28.475Z,100626.23
2019-06-01T22:00:37.260Z,100626.48
2019-06-01T22:03:41.203Z,100631.80
2019-06-01T22:06:46.440Z,100631.51
2019-06-01T22:09:50.693Z,100633.13
2019-06-01T22:12:54.516Z,100630.78
2019-06-01T22:15:58.668Z,100627.38
2019-06-01T22:19:02.568Z,100632.81
2019-06-01T22:22:06.862Z,100625.31
2019-06-01T22:25:11.087Z,100631.62
2019-06-01T22:28:14.983Z,100627.08
2019-06-01T22:31:20.182Z,100628.42
2019-06-01T22:34:24.895Z,100626.77
2019-06-01T22:37:28.874Z,100624.59
2019-06-01T22:40:33.331Z,100627.30
2019-06-01T22:43:46.124Z,100624.87
2019-06-01T22:46:43.701Z,100627.95
2019-06-01T22:49:47.531Z,100624.78
2019-06-01T22:52:51.367Z,100624.08
2019-06-01T22:55:55.535Z,100622.77
2019-06-01T22:58:59.519Z,100617.28
2019-06-01T23:02:03.543Z,100614.45
2019-06-01T23:05:07.897Z,100614.48
2019-06-01T23:08:12.047Z,100619.23
2019-06-01T23:11:16.339Z,100614.88
2019-06-01T23:14:21.340Z,100617.87
2019-06-01T23:17:25.886Z,100601.97
2019-06-01T23:20:30.137Z,100607.94
2019-06-01T23:23:33.963Z,100609.30
2019-06-01T23:26:37.927Z,100609.45
2019-06-01T23:29:42.164Z,100608.42
2019-06-01T23:32:46.920Z,100612.57
2019-06-01T23:35:51.256Z,100601.02
2019-06-01T23:38:55.750Z,100594.56
2019-06-01T23:41:59.837Z,100593.33
2019-06-01T23:45:04.084Z,100587.85
2019-06-01T23:48:08.407Z,100589.02
2019-06-01T23:51:12.528Z,100584.37
2019-06-01T23:54:16.341Z,100584.37
2019-06-01T23:57:20.248Z,100581.44
